Pagrindinis puslapis
METAR-TAF:

METAR-TAF

Oro uostai :

Kišiniovas, Moldavija

platuma: 46-55-40N, ilguma: 028-55-51E, Aukštis: 122 m

Dabartinis oras

Ataskaita buvo paskelbta 19 minutes, ne 00:00 UTC
Vėjas 6 kt iš Šiaurės Vakarų
Temperatūra -6°C
Drėgmė 86%
Slėgis 1030 hPa
Matomumas 10 km arba daugiau
nėra debesų žemiau 1500 m ir nėra kamuolinių lietaus debesų

METAR: LUKK 070000Z 31006KT CAVOK M06/M08 Q1030 R26/D NOSIG

Laikas: 02:19 (00:19 UTC)

Prognozė

Ataskaita buvo paskelbta 59 minutes, ne 23:20 UTC
Prognozė galioja nuo 07 metu 00 UTC su 07 metu 24 UTC
Vėjas 8 kt iš Vakarų/Pietvakarių
Matomumas 10 km arba daugiau
nėra debesų žemiau 1500 m ir nėra kamuolinių lietaus debesų

TAF: LUKK 062320Z 0700/0724 25008KT CAVOK

Orai ataskaitas ir orų prognozės (METAR, TAF).

turimą stotys yra geltonos ir raudonos taškus žemėlapyje.

Perkelti pele per norėdami pamatyti stoties vardą.

Tada spustelėkite, norėdami matyti oro stebėjimo ir prognozės.

Norėdami pakeisti žemėlapį: spustelėkite ant žalios mygtukų su juodo kryžiaus žemyn,; žalią mygtuką su brūkšneliu, jei norite nutolinti; arba žalių rodyklių gretimoms žemėlapius.


METAR-TAF: